sensor_id;sensor_type;location;lat;lon;timestamp;P1;durP1;ratioP1;P2;durP2;ratioP2
5878;SDS011;2965;42.640;23.370;2023-12-04T04:02:03;4.80;;;4.40;;
5878;SDS011;2965;42.640;23.370;2023-12-04T04:04:28;5.57;;;4.10;;
5878;SDS011;2965;42.640;23.370;2023-12-04T04:06:54;6.40;;;3.93;;
5878;SDS011;2965;42.640;23.370;2023-12-04T04:09:19;4.33;;;3.93;;
5878;SDS011;2965;42.640;23.370;2023-12-04T04:11:45;3.23;;;3.10;;
5878;SDS011;2965;42.640;23.370;2023-12-04T04:14:12;5.77;;;4.43;;
5878;SDS011;2965;42.640;23.370;2023-12-04T04:16:37;7.37;;;6.20;;
5878;SDS011;2965;42.640;23.370;2023-12-04T04:19:03;6.30;;;5.00;;
5878;SDS011;2965;42.640;23.370;2023-12-04T04:21:28;9.90;;;6.20;;
5878;SDS011;2965;42.640;23.370;2023-12-04T04:23:54;4.90;;;4.50;;
5878;SDS011;2965;42.640;23.370;2023-12-04T04:26:19;6.60;;;4.37;;
5878;SDS011;2965;42.640;23.370;2023-12-04T04:28:45;2.80;;;2.60;;
5878;SDS011;2965;42.640;23.370;2023-12-04T04:31:10;5.60;;;5.17;;
5878;SDS011;2965;42.640;23.370;2023-12-04T04:33:35;5.57;;;4.20;;
5878;SDS011;2965;42.640;23.370;2023-12-04T04:36:01;4.77;;;4.40;;
5878;SDS011;2965;42.640;23.370;2023-12-04T04:38:27;3.90;;;3.60;;
5878;SDS011;2965;42.640;23.370;2023-12-04T04:40:52;10.33;;;4.70;;
5878;SDS011;2965;42.640;23.370;2023-12-04T04:43:18;4.30;;;4.00;;
5878;SDS011;2965;42.640;23.370;2023-12-04T04:45:44;4.87;;;4.27;;
5878;SDS011;2965;42.640;23.370;2023-12-04T04:48:10;4.03;;;3.40;;
5878;SDS011;2965;42.640;23.370;2023-12-04T04:50:35;5.30;;;4.10;;
5878;SDS011;2965;42.640;23.370;2023-12-04T04:53:01;6.60;;;4.73;;
5878;SDS011;2965;42.640;23.370;2023-12-04T04:55:26;5.87;;;3.63;;
5878;SDS011;2965;42.640;23.370;2023-12-04T04:57:51;4.97;;;4.47;;
5878;SDS011;2965;42.640;23.370;2023-12-04T05:00:17;5.00;;;4.40;;
5878;SDS011;2965;42.640;23.370;2023-12-04T05:02:43;7.13;;;5.80;;
5878;SDS011;2965;42.640;23.370;2023-12-04T05:05:08;6.80;;;5.43;;
5878;SDS011;2965;42.640;23.370;2023-12-04T05:07:34;5.40;;;5.03;;
5878;SDS011;2965;42.640;23.370;2023-12-04T05:09:59;3.63;;;3.43;;
5878;SDS011;2965;42.640;23.370;2023-12-04T05:12:24;3.50;;;3.10;;
5878;SDS011;2965;42.640;23.370;2023-12-04T05:14:50;4.67;;;4.37;;
5878;SDS011;2965;42.640;23.370;2023-12-04T05:17:15;3.60;;;3.30;;
5878;SDS011;2965;42.640;23.370;2023-12-04T05:19:41;5.87;;;5.00;;
5878;SDS011;2965;42.640;23.370;2023-12-04T05:22:06;5.40;;;5.00;;
5878;SDS011;2965;42.640;23.370;2023-12-04T05:24:33;7.10;;;5.03;;
5878;SDS011;2965;42.640;23.370;2023-12-04T05:26:58;4.67;;;4.23;;
5878;SDS011;2965;42.640;23.370;2023-12-04T05:29:24;7.30;;;3.70;;
5878;SDS011;2965;42.640;23.370;2023-12-04T05:31:49;5.87;;;4.17;;
5878;SDS011;2965;42.640;23.370;2023-12-04T05:34:15;5.90;;;4.80;;
5878;SDS011;2965;42.640;23.370;2023-12-04T05:36:40;6.43;;;5.50;;
5878;SDS011;2965;42.640;23.370;2023-12-04T05:39:06;4.03;;;3.73;;
5878;SDS011;2965;42.640;23.370;2023-12-04T05:41:32;3.03;;;2.77;;
5878;SDS011;2965;42.640;23.370;2023-12-04T05:43:57;20.07;;;7.13;;
5878;SDS011;2965;42.640;23.370;2023-12-04T05:46:22;6.27;;;5.67;;
5878;SDS011;2965;42.640;23.370;2023-12-04T05:48:48;9.93;;;6.23;;
5878;SDS011;2965;42.640;23.370;2023-12-04T05:51:13;7.33;;;4.80;;
5878;SDS011;2965;42.640;23.370;2023-12-04T05:53:40;5.67;;;5.03;;
5878;SDS011;2965;42.640;23.370;2023-12-04T05:56:06;9.30;;;6.23;;
5878;SDS011;2965;42.640;23.370;2023-12-04T05:58:34;7.57;;;6.70;;
5878;SDS011;2965;42.640;23.370;2023-12-04T06:00:59;10.40;;;6.37;;
5878;SDS011;2965;42.640;23.370;2023-12-04T06:03:25;7.90;;;5.80;;
5878;SDS011;2965;42.640;23.370;2023-12-04T08:54:32;4.73;;;4.20;;
5878;SDS011;2965;42.640;23.370;2023-12-04T08:56:58;4.53;;;4.17;;
5878;SDS011;2965;42.640;23.370;2023-12-04T08:59:23;4.47;;;4.13;;
5878;SDS011;2965;42.640;23.370;2023-12-04T09:01:49;5.07;;;4.63;;
5878;SDS011;2965;42.640;23.370;2023-12-04T09:04:14;4.23;;;3.97;;
5878;SDS011;2965;42.640;23.370;2023-12-04T09:06:39;5.20;;;4.70;;
5878;SDS011;2965;42.640;23.370;2023-12-04T09:09:05;6.00;;;5.47;;
5878;SDS011;2965;42.640;23.370;2023-12-04T09:11:30;5.80;;;5.40;;
5878;SDS011;2965;42.640;23.370;2023-12-04T09:13:56;6.97;;;6.03;;
5878;SDS011;2965;42.640;23.370;2023-12-04T09:16:21;6.00;;;5.43;;
5878;SDS011;2965;42.640;23.370;2023-12-04T09:18:47;7.20;;;5.70;;
5878;SDS011;2965;42.640;23.370;2023-12-04T09:21:12;9.40;;;5.30;;
5878;SDS011;2965;42.640;23.370;2023-12-04T09:23:38;6.13;;;5.60;;
5878;SDS011;2965;42.640;23.370;2023-12-04T09:26:03;6.53;;;5.93;;
5878;SDS011;2965;42.640;23.370;2023-12-04T09:28:29;5.57;;;5.07;;
5878;SDS011;2965;42.640;23.370;2023-12-04T09:30:54;6.00;;;5.50;;
5878;SDS011;2965;42.640;23.370;2023-12-04T09:33:20;7.10;;;5.37;;
5878;SDS011;2965;42.640;23.370;2023-12-04T09:35:47;10.50;;;5.60;;
5878;SDS011;2965;42.640;23.370;2023-12-04T09:38:13;7.03;;;5.90;;
5878;SDS011;2965;42.640;23.370;2023-12-04T09:43:08;7.07;;;6.13;;
5878;SDS011;2965;42.640;23.370;2023-12-04T09:45:34;6.67;;;6.03;;
5878;SDS011;2965;42.640;23.370;2023-12-04T09:48:01;7.33;;;5.30;;
5878;SDS011;2965;42.640;23.370;2023-12-04T09:50:27;7.87;;;5.63;;
5878;SDS011;2965;42.640;23.370;2023-12-04T09:52:52;5.73;;;5.40;;
5878;SDS011;2965;42.640;23.370;2023-12-04T09:55:18;9.40;;;5.13;;
5878;SDS011;2965;42.640;23.370;2023-12-04T09:57:45;6.53;;;5.90;;
5878;SDS011;2965;42.640;23.370;2023-12-04T10:00:13;6.23;;;5.13;;
5878;SDS011;2965;42.640;23.370;2023-12-04T10:02:40;6.80;;;6.13;;
5878;SDS011;2965;42.640;23.370;2023-12-04T10:05:07;7.97;;;6.50;;
5878;SDS011;2965;42.640;23.370;2023-12-04T10:07:33;5.53;;;5.07;;
5878;SDS011;2965;42.640;23.370;2023-12-04T10:09:59;5.77;;;5.20;;
5878;SDS011;2965;42.640;23.370;2023-12-04T10:12:25;5.57;;;4.97;;
5878;SDS011;2965;42.640;23.370;2023-12-04T10:15:03;7.03;;;6.33;;
5878;SDS011;2965;42.640;23.370;2023-12-04T10:17:34;6.93;;;6.43;;
5878;SDS011;2965;42.640;23.370;2023-12-04T10:20:04;6.80;;;6.20;;
5878;SDS011;2965;42.640;23.370;2023-12-04T10:58:47;6.43;;;5.90;;
5878;SDS011;2965;42.640;23.370;2023-12-04T11:01:16;6.40;;;5.90;;
5878;SDS011;2965;42.640;23.370;2023-12-04T11:03:44;7.03;;;6.53;;
5878;SDS011;2965;42.640;23.370;2023-12-04T11:06:15;6.17;;;5.60;;
5878;SDS011;2965;42.640;23.370;2023-12-04T11:08:42;7.17;;;6.00;;
5878;SDS011;2965;42.640;23.370;2023-12-04T11:11:10;9.87;;;7.07;;
5878;SDS011;2965;42.640;23.370;2023-12-04T11:13:39;5.93;;;5.40;;
5878;SDS011;2965;42.640;23.370;2023-12-04T11:16:18;11.40;;;5.80;;
5878;SDS011;2965;42.640;23.370;2023-12-04T11:18:52;4.73;;;4.40;;
5878;SDS011;2965;42.640;23.370;2023-12-04T11:21:22;5.83;;;5.30;;
5878;SDS011;2965;42.640;23.370;2023-12-04T11:23:49;9.93;;;5.97;;
5878;SDS011;2965;42.640;23.370;2023-12-04T11:26:15;6.53;;;5.93;;
5878;SDS011;2965;42.640;23.370;2023-12-04T11:28:41;6.60;;;6.07;;
5878;SDS011;2965;42.640;23.370;2023-12-04T11:31:08;5.93;;;5.53;;
5878;SDS011;2965;42.640;23.370;2023-12-04T11:33:34;6.87;;;6.17;;
5878;SDS011;2965;42.640;23.370;2023-12-04T11:36:07;5.20;;;4.90;;
5878;SDS011;2965;42.640;23.370;2023-12-04T11:38:35;5.90;;;5.40;;
5878;SDS011;2965;42.640;23.370;2023-12-04T11:41:11;9.30;;;6.10;;
5878;SDS011;2965;42.640;23.370;2023-12-04T11:43:46;6.17;;;5.57;;
5878;SDS011;2965;42.640;23.370;2023-12-04T11:46:23;6.90;;;6.33;;
5878;SDS011;2965;42.640;23.370;2023-12-04T11:48:53;5.83;;;4.87;;
5878;SDS011;2965;42.640;23.370;2023-12-04T11:54:03;7.23;;;6.00;;
5878;SDS011;2965;42.640;23.370;2023-12-04T11:56:30;9.00;;;6.60;;
5878;SDS011;2965;42.640;23.370;2023-12-04T11:59:02;7.03;;;5.90;;
5878;SDS011;2965;42.640;23.370;2023-12-04T12:01:28;7.00;;;6.30;;
5878;SDS011;2965;42.640;23.370;2023-12-04T12:03:59;12.33;;;6.80;;
5878;SDS011;2965;42.640;23.370;2023-12-04T12:06:24;7.03;;;6.47;;
5878;SDS011;2965;42.640;23.370;2023-12-04T12:08:50;9.83;;;6.47;;
5878;SDS011;2965;42.640;23.370;2023-12-04T12:11:16;6.70;;;6.10;;
5878;SDS011;2965;42.640;23.370;2023-12-04T12:13:42;7.10;;;6.40;;
5878;SDS011;2965;42.640;23.370;2023-12-04T12:16:07;8.37;;;6.90;;
5878;SDS011;2965;42.640;23.370;2023-12-04T12:18:36;8.33;;;7.30;;
5878;SDS011;2965;42.640;23.370;2023-12-04T12:21:01;8.07;;;7.27;;
5878;SDS011;2965;42.640;23.370;2023-12-04T12:23:27;9.77;;;7.10;;
5878;SDS011;2965;42.640;23.370;2023-12-04T12:25:54;6.87;;;6.40;;
5878;SDS011;2965;42.640;23.370;2023-12-04T12:28:19;8.47;;;7.20;;
5878;SDS011;2965;42.640;23.370;2023-12-04T12:30:45;7.67;;;6.97;;
5878;SDS011;2965;42.640;23.370;2023-12-04T12:33:14;8.40;;;7.70;;
5878;SDS011;2965;42.640;23.370;2023-12-04T12:35:40;8.60;;;7.63;;
5878;SDS011;2965;42.640;23.370;2023-12-04T12:38:06;10.03;;;8.30;;
5878;SDS011;2965;42.640;23.370;2023-12-04T12:40:32;9.23;;;8.03;;
5878;SDS011;2965;42.640;23.370;2023-12-04T12:43:05;11.37;;;7.77;;
5878;SDS011;2965;42.640;23.370;2023-12-04T12:45:38;9.27;;;8.33;;
5878;SDS011;2965;42.640;23.370;2023-12-04T12:48:04;9.47;;;8.50;;
5878;SDS011;2965;42.640;23.370;2023-12-04T12:50:31;8.60;;;7.80;;
5878;SDS011;2965;42.640;23.370;2023-12-04T12:52:57;10.03;;;8.60;;
5878;SDS011;2965;42.640;23.370;2023-12-04T12:55:23;10.97;;;8.40;;
5878;SDS011;2965;42.640;23.370;2023-12-04T12:57:50;16.10;;;9.73;;
5878;SDS011;2965;42.640;23.370;2023-12-04T13:00:16;15.50;;;8.40;;
5878;SDS011;2965;42.640;23.370;2023-12-04T13:02:43;15.30;;;8.90;;
5878;SDS011;2965;42.640;23.370;2023-12-04T13:05:09;11.63;;;9.10;;
5878;SDS011;2965;42.640;23.370;2023-12-04T13:07:36;15.40;;;9.23;;
5878;SDS011;2965;42.640;23.370;2023-12-04T13:10:02;9.57;;;8.43;;
5878;SDS011;2965;42.640;23.370;2023-12-04T13:12:30;15.83;;;9.23;;
5878;SDS011;2965;42.640;23.370;2023-12-04T13:14:55;12.73;;;8.80;;
5878;SDS011;2965;42.640;23.370;2023-12-04T13:17:21;15.00;;;10.07;;
5878;SDS011;2965;42.640;23.370;2023-12-04T13:19:46;13.20;;;10.80;;
5878;SDS011;2965;42.640;23.370;2023-12-04T13:22:12;19.90;;;11.10;;
5878;SDS011;2965;42.640;23.370;2023-12-04T13:24:38;13.90;;;11.47;;
5878;SDS011;2965;42.640;23.370;2023-12-04T13:27:03;13.17;;;11.10;;
5878;SDS011;2965;42.640;23.370;2023-12-04T13:29:29;14.33;;;10.83;;
5878;SDS011;2965;42.640;23.370;2023-12-04T13:31:54;18.93;;;10.53;;
5878;SDS011;2965;42.640;23.370;2023-12-04T13:34:20;18.90;;;12.67;;
5878;SDS011;2965;42.640;23.370;2023-12-04T13:36:45;19.60;;;13.30;;
5878;SDS011;2965;42.640;23.370;2023-12-04T13:39:11;18.47;;;12.80;;
5878;SDS011;2965;42.640;23.370;2023-12-04T13:41:43;31.77;;;16.13;;
5878;SDS011;2965;42.640;23.370;2023-12-04T13:44:27;18.43;;;12.87;;
5878;SDS011;2965;42.640;23.370;2023-12-04T13:46:53;23.80;;;12.53;;
5878;SDS011;2965;42.640;23.370;2023-12-04T13:49:18;20.07;;;12.50;;
5878;SDS011;2965;42.640;23.370;2023-12-04T13:51:44;17.83;;;13.07;;
5878;SDS011;2965;42.640;23.370;2023-12-04T13:54:10;18.80;;;13.27;;
5878;SDS011;2965;42.640;23.370;2023-12-04T13:56:46;17.87;;;13.13;;
5878;SDS011;2965;42.640;23.370;2023-12-04T13:59:19;23.10;;;11.83;;
5878;SDS011;2965;42.640;23.370;2023-12-04T14:01:46;20.27;;;12.90;;
5878;SDS011;2965;42.640;23.370;2023-12-04T14:04:14;24.10;;;13.17;;
5878;SDS011;2965;42.640;23.370;2023-12-04T14:06:40;22.63;;;13.03;;
5878;SDS011;2965;42.640;23.370;2023-12-04T14:09:06;21.10;;;11.37;;
5878;SDS011;2965;42.640;23.370;2023-12-04T14:11:41;18.50;;;13.10;;
5878;SDS011;2965;42.640;23.370;2023-12-04T14:14:09;29.27;;;11.97;;
5878;SDS011;2965;42.640;23.370;2023-12-04T14:16:34;16.40;;;10.27;;
5878;SDS011;2965;42.640;23.370;2023-12-04T14:18:59;18.70;;;11.70;;
5878;SDS011;2965;42.640;23.370;2023-12-04T14:21:27;17.97;;;10.37;;
5878;SDS011;2965;42.640;23.370;2023-12-04T14:23:53;16.70;;;10.73;;
5878;SDS011;2965;42.640;23.370;2023-12-04T14:26:18;17.83;;;10.40;;
5878;SDS011;2965;42.640;23.370;2023-12-04T14:28:44;17.10;;;11.30;;
5878;SDS011;2965;42.640;23.370;2023-12-04T14:31:09;13.40;;;9.53;;
5878;SDS011;2965;42.640;23.370;2023-12-04T14:33:36;15.67;;;10.27;;
5878;SDS011;2965;42.640;23.370;2023-12-04T14:36:01;15.50;;;9.60;;
5878;SDS011;2965;42.640;23.370;2023-12-04T14:38:27;15.73;;;10.67;;
5878;SDS011;2965;42.640;23.370;2023-12-04T14:40:52;15.00;;;9.87;;
5878;SDS011;2965;42.640;23.370;2023-12-04T14:43:18;16.77;;;9.87;;
5878;SDS011;2965;42.640;23.370;2023-12-04T14:45:43;14.97;;;10.30;;
5878;SDS011;2965;42.640;23.370;2023-12-04T14:48:09;21.73;;;10.10;;
5878;SDS011;2965;42.640;23.370;2023-12-04T14:50:35;26.10;;;12.07;;
5878;SDS011;2965;42.640;23.370;2023-12-04T14:53:02;17.40;;;10.30;;
5878;SDS011;2965;42.640;23.370;2023-12-04T14:55:43;26.80;;;11.60;;
5878;SDS011;2965;42.640;23.370;2023-12-04T14:58:29;28.83;;;13.03;;
5878;SDS011;2965;42.640;23.370;2023-12-04T15:01:14;23.83;;;13.50;;
5878;SDS011;2965;42.640;23.370;2023-12-04T15:03:58;17.67;;;11.70;;
5878;SDS011;2965;42.640;23.370;2023-12-04T15:06:42;21.23;;;13.10;;
5878;SDS011;2965;42.640;23.370;2023-12-04T15:09:26;22.77;;;12.60;;
5878;SDS011;2965;42.640;23.370;2023-12-04T15:12:30;18.20;;;11.47;;
5878;SDS011;2965;42.640;23.370;2023-12-04T15:15:35;20.00;;;11.63;;
5878;SDS011;2965;42.640;23.370;2023-12-04T15:18:08;20.47;;;13.80;;
5878;SDS011;2965;42.640;23.370;2023-12-04T15:20:52;26.53;;;15.30;;
5878;SDS011;2965;42.640;23.370;2023-12-04T15:23:35;21.77;;;14.70;;
5878;SDS011;2965;42.640;23.370;2023-12-04T15:26:18;31.80;;;16.73;;
5878;SDS011;2965;42.640;23.370;2023-12-04T15:28:58;28.43;;;15.97;;
5878;SDS011;2965;42.640;23.370;2023-12-04T15:31:31;31.90;;;16.83;;
5878;SDS011;2965;42.640;23.370;2023-12-04T15:34:19;42.07;;;16.10;;
5878;SDS011;2965;42.640;23.370;2023-12-04T15:36:49;35.90;;;15.93;;
5878;SDS011;2965;42.640;23.370;2023-12-04T15:42:29;31.57;;;15.67;;
5878;SDS011;2965;42.640;23.370;2023-12-04T15:45:20;50.70;;;14.90;;
5878;SDS011;2965;42.640;23.370;2023-12-04T15:48:02;41.53;;;15.47;;
5878;SDS011;2965;42.640;23.370;2023-12-04T15:50:36;19.90;;;13.63;;
5878;SDS011;2965;42.640;23.370;2023-12-04T15:53:01;28.57;;;13.20;;
5878;SDS011;2965;42.640;23.370;2023-12-04T15:55:27;45.47;;;12.70;;
5878;SDS011;2965;42.640;23.370;2023-12-04T15:57:53;27.00;;;13.67;;
5878;SDS011;2965;42.640;23.370;2023-12-04T16:02:47;27.60;;;14.03;;
5878;SDS011;2965;42.640;23.370;2023-12-04T16:05:13;26.13;;;13.40;;
5878;SDS011;2965;42.640;23.370;2023-12-04T16:07:39;23.03;;;13.73;;
5878;SDS011;2965;42.640;23.370;2023-12-04T16:10:05;21.60;;;13.50;;
5878;SDS011;2965;42.640;23.370;2023-12-04T16:12:34;33.10;;;15.13;;
5878;SDS011;2965;42.640;23.370;2023-12-04T16:15:01;28.33;;;15.43;;
5878;SDS011;2965;42.640;23.370;2023-12-04T16:17:30;28.60;;;14.57;;
5878;SDS011;2965;42.640;23.370;2023-12-04T16:19:56;26.07;;;14.53;;
5878;SDS011;2965;42.640;23.370;2023-12-04T16:22:25;28.33;;;13.67;;
5878;SDS011;2965;42.640;23.370;2023-12-04T16:24:51;30.57;;;15.63;;
5878;SDS011;2965;42.640;23.370;2023-12-04T16:27:17;37.70;;;15.00;;
5878;SDS011;2965;42.640;23.370;2023-12-04T16:29:43;27.80;;;14.37;;
5878;SDS011;2965;42.640;23.370;2023-12-04T16:32:08;29.37;;;14.87;;
5878;SDS011;2965;42.640;23.370;2023-12-04T16:34:34;26.03;;;15.03;;
5878;SDS011;2965;42.640;23.370;2023-12-04T16:36:59;26.10;;;13.97;;
5878;SDS011;2965;42.640;23.370;2023-12-04T16:39:26;28.93;;;13.60;;
5878;SDS011;2965;42.640;23.370;2023-12-04T16:41:52;27.40;;;14.97;;
5878;SDS011;2965;42.640;23.370;2023-12-04T16:44:21;29.60;;;13.93;;
5878;SDS011;2965;42.640;23.370;2023-12-04T16:46:47;20.50;;;13.07;;
5878;SDS011;2965;42.640;23.370;2023-12-04T16:49:14;24.70;;;13.70;;
5878;SDS011;2965;42.640;23.370;2023-12-04T16:51:40;21.20;;;13.03;;
5878;SDS011;2965;42.640;23.370;2023-12-04T16:54:07;21.03;;;12.47;;
5878;SDS011;2965;42.640;23.370;2023-12-04T16:56:33;24.17;;;13.53;;
5878;SDS011;2965;42.640;23.370;2023-12-04T16:58:59;19.10;;;12.50;;
5878;SDS011;2965;42.640;23.370;2023-12-04T17:01:24;25.37;;;12.40;;
5878;SDS011;2965;42.640;23.370;2023-12-04T17:03:50;23.80;;;11.90;;
5878;SDS011;2965;42.640;23.370;2023-12-04T17:06:16;24.63;;;12.23;;
5878;SDS011;2965;42.640;23.370;2023-12-04T17:08:42;24.83;;;12.17;;
5878;SDS011;2965;42.640;23.370;2023-12-04T17:11:08;25.93;;;11.23;;
5878;SDS011;2965;42.640;23.370;2023-12-04T17:13:34;21.50;;;11.50;;
5878;SDS011;2965;42.640;23.370;2023-12-04T17:16:00;31.13;;;11.57;;
5878;SDS011;2965;42.640;23.370;2023-12-04T17:18:25;22.57;;;12.03;;
5878;SDS011;2965;42.640;23.370;2023-12-04T17:20:50;19.57;;;11.20;;
5878;SDS011;2965;42.640;23.370;2023-12-04T17:23:16;16.70;;;10.60;;
5878;SDS011;2965;42.640;23.370;2023-12-04T17:25:41;20.83;;;12.40;;
5878;SDS011;2965;42.640;23.370;2023-12-04T17:28:07;20.50;;;11.90;;
5878;SDS011;2965;42.640;23.370;2023-12-04T17:30:33;23.33;;;12.30;;
5878;SDS011;2965;42.640;23.370;2023-12-04T17:32:58;16.20;;;10.87;;
5878;SDS011;2965;42.640;23.370;2023-12-04T17:35:24;15.73;;;11.40;;
5878;SDS011;2965;42.640;23.370;2023-12-04T17:37:51;22.00;;;12.07;;
5878;SDS011;2965;42.640;23.370;2023-12-04T17:40:16;29.33;;;10.83;;
5878;SDS011;2965;42.640;23.370;2023-12-04T17:42:42;20.00;;;11.77;;
5878;SDS011;2965;42.640;23.370;2023-12-04T17:45:09;21.67;;;10.73;;
5878;SDS011;2965;42.640;23.370;2023-12-04T17:47:35;27.00;;;12.30;;
5878;SDS011;2965;42.640;23.370;2023-12-04T17:50:01;20.63;;;11.67;;
5878;SDS011;2965;42.640;23.370;2023-12-04T17:52:27;19.53;;;10.20;;
5878;SDS011;2965;42.640;23.370;2023-12-04T17:54:53;15.83;;;11.00;;
5878;SDS011;2965;42.640;23.370;2023-12-04T17:57:18;20.27;;;10.53;;
5878;SDS011;2965;42.640;23.370;2023-12-04T17:59:46;24.40;;;10.50;;
5878;SDS011;2965;42.640;23.370;2023-12-04T18:02:11;29.47;;;11.67;;
5878;SDS011;2965;42.640;23.370;2023-12-04T18:04:37;16.60;;;10.70;;
5878;SDS011;2965;42.640;23.370;2023-12-04T18:07:03;16.50;;;10.87;;
5878;SDS011;2965;42.640;23.370;2023-12-04T18:09:30;19.10;;;10.90;;
5878;SDS011;2965;42.640;23.370;2023-12-04T18:11:55;24.10;;;12.67;;
5878;SDS011;2965;42.640;23.370;2023-12-04T18:14:21;19.90;;;12.80;;
5878;SDS011;2965;42.640;23.370;2023-12-04T18:16:47;60.23;;;29.07;;
5878;SDS011;2965;42.640;23.370;2023-12-04T18:19:13;109.17;;;53.50;;
5878;SDS011;2965;42.640;23.370;2023-12-04T18:21:38;218.60;;;90.33;;
5878;SDS011;2965;42.640;23.370;2023-12-04T18:24:04;76.90;;;40.90;;
5878;SDS011;2965;42.640;23.370;2023-12-04T18:26:29;104.90;;;59.47;;
5878;SDS011;2965;42.640;23.370;2023-12-04T18:28:56;60.40;;;38.60;;
5878;SDS011;2965;42.640;23.370;2023-12-04T18:31:22;49.43;;;33.70;;
5878;SDS011;2965;42.640;23.370;2023-12-04T18:33:48;19.70;;;14.80;;
5878;SDS011;2965;42.640;23.370;2023-12-04T18:36:14;20.60;;;13.67;;
5878;SDS011;2965;42.640;23.370;2023-12-04T18:38:42;18.73;;;12.40;;
5878;SDS011;2965;42.640;23.370;2023-12-04T18:41:14;15.40;;;10.63;;
5878;SDS011;2965;42.640;23.370;2023-12-04T18:43:40;20.13;;;10.37;;
5878;SDS011;2965;42.640;23.370;2023-12-04T18:46:06;64.20;;;32.67;;
5878;SDS011;2965;42.640;23.370;2023-12-04T18:48:34;21.63;;;11.53;;
5878;SDS011;2965;42.640;23.370;2023-12-04T18:51:01;13.30;;;8.60;;
5878;SDS011;2965;42.640;23.370;2023-12-04T18:53:26;13.03;;;8.77;;
5878;SDS011;2965;42.640;23.370;2023-12-04T18:55:52;13.73;;;9.00;;
5878;SDS011;2965;42.640;23.370;2023-12-04T18:58:18;13.23;;;9.43;;
5878;SDS011;2965;42.640;23.370;2023-12-04T19:00:43;10.30;;;8.60;;
5878;SDS011;2965;42.640;23.370;2023-12-04T19:03:09;11.50;;;8.80;;
5878;SDS011;2965;42.640;23.370;2023-12-04T19:05:35;10.87;;;8.70;;
5878;SDS011;2965;42.640;23.370;2023-12-04T19:08:00;13.70;;;8.43;;
5878;SDS011;2965;42.640;23.370;2023-12-04T19:10:29;13.07;;;8.53;;
5878;SDS011;2965;42.640;23.370;2023-12-04T19:12:54;11.67;;;8.67;;
5878;SDS011;2965;42.640;23.370;2023-12-04T19:15:21;10.17;;;8.93;;
5878;SDS011;2965;42.640;23.370;2023-12-04T19:17:47;11.47;;;8.67;;
5878;SDS011;2965;42.640;23.370;2023-12-04T19:20:12;8.77;;;7.53;;
5878;SDS011;2965;42.640;23.370;2023-12-04T19:22:38;9.03;;;7.90;;
5878;SDS011;2965;42.640;23.370;2023-12-04T19:25:03;11.80;;;9.23;;
5878;SDS011;2965;42.640;23.370;2023-12-04T19:27:29;13.30;;;8.97;;
5878;SDS011;2965;42.640;23.370;2023-12-04T19:29:55;12.90;;;9.13;;
5878;SDS011;2965;42.640;23.370;2023-12-04T19:32:20;9.87;;;8.60;;
5878;SDS011;2965;42.640;23.370;2023-12-04T19:34:46;15.67;;;9.40;;
5878;SDS011;2965;42.640;23.370;2023-12-04T19:37:11;12.77;;;9.13;;
5878;SDS011;2965;42.640;23.370;2023-12-04T19:39:40;11.80;;;8.50;;
5878;SDS011;2965;42.640;23.370;2023-12-04T19:42:06;16.77;;;11.50;;
5878;SDS011;2965;42.640;23.370;2023-12-04T19:44:32;15.33;;;10.03;;
5878;SDS011;2965;42.640;23.370;2023-12-04T19:46:58;16.40;;;10.80;;
5878;SDS011;2965;42.640;23.370;2023-12-04T19:49:24;15.67;;;10.53;;
5878;SDS011;2965;42.640;23.370;2023-12-04T19:51:49;21.10;;;12.47;;
5878;SDS011;2965;42.640;23.370;2023-12-04T19:54:15;20.37;;;12.83;;
5878;SDS011;2965;42.640;23.370;2023-12-04T20:27:39;17.37;;;11.73;;
5878;SDS011;2965;42.640;23.370;2023-12-04T20:30:05;22.13;;;12.13;;
5878;SDS011;2965;42.640;23.370;2023-12-04T20:32:31;17.80;;;10.70;;
5878;SDS011;2965;42.640;23.370;2023-12-04T20:34:56;18.13;;;11.60;;
5878;SDS011;2965;42.640;23.370;2023-12-04T20:37:23;27.57;;;13.07;;
5878;SDS011;2965;42.640;23.370;2023-12-04T20:39:48;22.90;;;11.90;;
5878;SDS011;2965;42.640;23.370;2023-12-04T20:42:14;20.83;;;12.53;;
5878;SDS011;2965;42.640;23.370;2023-12-04T20:44:42;21.40;;;13.17;;
5878;SDS011;2965;42.640;23.370;2023-12-04T20:47:08;21.23;;;12.00;;
5878;SDS011;2965;42.640;23.370;2023-12-04T20:49:33;18.17;;;12.03;;
5878;SDS011;2965;42.640;23.370;2023-12-04T20:51:59;15.20;;;11.20;;
5878;SDS011;2965;42.640;23.370;2023-12-04T20:54:24;18.27;;;11.77;;
5878;SDS011;2965;42.640;23.370;2023-12-04T20:56:50;20.00;;;11.80;;
5878;SDS011;2965;42.640;23.370;2023-12-04T20:59:15;24.00;;;12.63;;
5878;SDS011;2965;42.640;23.370;2023-12-04T21:01:41;20.13;;;11.80;;
5878;SDS011;2965;42.640;23.370;2023-12-04T21:04:06;27.30;;;12.17;;
5878;SDS011;2965;42.640;23.370;2023-12-04T21:06:33;17.80;;;11.27;;
5878;SDS011;2965;42.640;23.370;2023-12-04T21:09:00;21.17;;;11.90;;
5878;SDS011;2965;42.640;23.370;2023-12-04T21:11:26;16.20;;;11.13;;
5878;SDS011;2965;42.640;23.370;2023-12-04T21:13:52;19.13;;;12.53;;
5878;SDS011;2965;42.640;23.370;2023-12-04T21:16:17;21.13;;;11.63;;
5878;SDS011;2965;42.640;23.370;2023-12-04T21:18:43;25.97;;;12.20;;
5878;SDS011;2965;42.640;23.370;2023-12-04T21:21:10;19.60;;;11.67;;
5878;SDS011;2965;42.640;23.370;2023-12-04T21:23:36;18.00;;;11.40;;
5878;SDS011;2965;42.640;23.370;2023-12-04T21:26:01;16.73;;;10.87;;
5878;SDS011;2965;42.640;23.370;2023-12-04T21:28:28;15.13;;;10.63;;
5878;SDS011;2965;42.640;23.370;2023-12-04T21:30:54;17.50;;;11.70;;
5878;SDS011;2965;42.640;23.370;2023-12-04T21:33:22;21.97;;;11.57;;
5878;SDS011;2965;42.640;23.370;2023-12-04T21:35:48;20.77;;;11.77;;
5878;SDS011;2965;42.640;23.370;2023-12-04T21:38:14;17.27;;;10.40;;
5878;SDS011;2965;42.640;23.370;2023-12-04T21:40:39;17.40;;;10.90;;
5878;SDS011;2965;42.640;23.370;2023-12-04T21:43:05;22.73;;;11.73;;
5878;SDS011;2965;42.640;23.370;2023-12-04T21:45:30;15.70;;;10.00;;
5878;SDS011;2965;42.640;23.370;2023-12-04T21:47:56;18.17;;;11.17;;
5878;SDS011;2965;42.640;23.370;2023-12-04T21:50:21;15.60;;;9.60;;
5878;SDS011;2965;42.640;23.370;2023-12-04T21:52:47;15.67;;;9.80;;
5878;SDS011;2965;42.640;23.370;2023-12-04T21:55:12;19.27;;;10.60;;
5878;SDS011;2965;42.640;23.370;2023-12-04T21:57:38;26.43;;;10.43;;
5878;SDS011;2965;42.640;23.370;2023-12-04T22:00:04;16.50;;;10.27;;
